Fairview, Washington
Current Conditions -  °F | °C
As of 2:53 AM on Sunday 21 Dec 2014 (Local Time) from KYKM Reporting Station
Clear Clear  
Wind Chill: 42°   Ceiling: Unl
Heat Index: 42°   Visibility: 9mi
Dew Point: 40°   Wind: 3mph
Humidity: 92%   Direction: 110°ESE
Pressure: 29.62"   Gusts: NA
Location:  46.562°N, 120.899°W
Report Text: KYKM 211053Z AUTO 11003KT 9SM CLR 06/04 A2962 RMK AO2 RAE39 SLP034 P0002 T00560044
Loading
Personal Weather Stations






























Interactive Weather Map New forecast layout! Learn more

10-Day Weather Forecast

Advertisements
Track Severe Weather on mobile